Darrington, Mississippi
Current Conditions -  °F | °C
As of 12:35 PM on Sunday 25 Jan 2015 (Local Time) from KHEZ Reporting Station
Clear Clear  
Wind Chill: 64°   Ceiling: Unl
Heat Index: 64°   Visibility: 10mi
Dew Point: 39°   Wind: 17mph
Humidity: 40%   Direction: 230°SW
Pressure: 29.86"   Gusts: 26mph
Location:  31.312°N, 90.9827°W
Report Text: KHEZ 251835Z AUTO 23015G23KT 10SM CLR 18/04 A2986 RMK AO1
Loading
Personal Weather Stations






























Interactive Weather Map New forecast layout! Learn more

10-Day Weather Forecast

Advertisements
Track Severe Weather on mobile